createdAt,value
2018-12-11T00:00:34.223Z,1.90
2018-12-11T00:03:03.982Z,1.90
2018-12-11T00:05:32.567Z,1.90
2018-12-11T00:08:00.869Z,1.90
2018-12-11T00:10:29.106Z,1.90
2018-12-11T00:12:57.573Z,1.90
2018-12-11T00:15:26.049Z,1.90
2018-12-11T00:17:54.736Z,1.90
2018-12-11T00:20:23.430Z,1.80
2018-12-11T00:22:51.666Z,1.80
2018-12-11T00:25:20.049Z,1.80
2018-12-11T00:27:49.353Z,1.80
2018-12-11T00:30:17.657Z,1.70
2018-12-11T00:32:46.344Z,1.60
2018-12-11T00:35:14.653Z,1.50
2018-12-11T00:37:43.431Z,1.50
2018-12-11T00:40:12.326Z,1.50
2018-12-11T00:42:40.765Z,1.60
2018-12-11T00:45:09.473Z,1.60
2018-12-11T00:47:37.778Z,1.60
2018-12-11T00:50:06.877Z,1.60
2018-12-11T00:52:35.167Z,1.60
2018-12-11T00:55:03.936Z,1.50
2018-12-11T00:57:33.915Z,1.40
2018-12-11T01:00:03.017Z,1.30
2018-12-11T01:02:31.884Z,1.20
2018-12-11T01:05:00.101Z,1.10
2018-12-11T01:07:28.372Z,1.10
2018-12-11T01:09:56.624Z,1.10
2018-12-11T01:12:24.862Z,1.10
2018-12-11T01:14:53.545Z,1.10
2018-12-11T01:17:22.716Z,1.20
2018-12-11T01:19:51.157Z,1.20
2018-12-11T01:22:20.522Z,1.20
2018-12-11T01:24:49.019Z,1.20
2018-12-11T01:27:17.390Z,1.10
2018-12-11T01:29:45.633Z,1.10
2018-12-11T01:32:14.144Z,1.00
2018-12-11T01:34:42.848Z,0.90
2018-12-11T01:37:11.112Z,0.80
2018-12-11T01:39:39.726Z,0.80
2018-12-11T01:42:08.559Z,0.80
2018-12-11T01:44:37.297Z,0.80
2018-12-11T01:47:06.060Z,0.90
2018-12-11T01:49:34.761Z,0.90
2018-12-11T01:52:03.453Z,1.00
2018-12-11T01:54:31.717Z,1.00
2018-12-11T01:57:00.047Z,0.90
2018-12-11T01:59:28.285Z,0.90
2018-12-11T02:01:56.965Z,0.80
2018-12-11T02:04:25.634Z,0.80
2018-12-11T02:06:53.969Z,0.80
2018-12-11T02:09:22.497Z,0.80
2018-12-11T02:11:50.929Z,0.80
2018-12-11T02:14:19.982Z,0.90
2018-12-11T02:16:48.404Z,0.90
2018-12-11T02:19:16.840Z,0.90
2018-12-11T02:21:46.074Z,0.90
2018-12-11T02:24:14.386Z,0.90
2018-12-11T02:26:43.221Z,0.90
2018-12-11T02:29:11.961Z,0.90
2018-12-11T02:31:40.759Z,0.90
2018-12-11T02:34:09.397Z,1.00
2018-12-11T02:36:38.564Z,1.00
2018-12-11T02:39:08.534Z,1.00
2018-12-11T02:41:36.811Z,1.10
2018-12-11T02:44:06.505Z,1.10
2018-12-11T02:46:34.730Z,1.10
2018-12-11T02:49:04.077Z,1.10
2018-12-11T02:51:32.386Z,1.10
2018-12-11T02:54:01.029Z,1.10
2018-12-11T02:56:30.773Z,1.10
2018-12-11T02:59:00.108Z,1.10
2018-12-11T03:01:28.611Z,1.10
2018-12-11T03:03:57.202Z,1.20
2018-12-11T03:06:25.533Z,1.20
2018-12-11T03:08:54.802Z,1.30
2018-12-11T03:11:23.450Z,1.40
2018-12-11T03:13:51.852Z,1.40
2018-12-11T03:16:20.943Z,1.40
2018-12-11T03:18:49.581Z,1.40
2018-12-11T03:21:17.801Z,1.40
2018-12-11T03:23:47.107Z,1.40
2018-12-11T03:26:15.318Z,1.30
2018-12-11T03:28:44.069Z,1.30
2018-12-11T03:31:12.294Z,1.30
2018-12-11T03:33:41.327Z,1.30
2018-12-11T03:36:10.785Z,1.30
2018-12-11T03:38:39.531Z,1.30
2018-12-11T03:41:07.844Z,1.30
2018-12-11T03:43:36.305Z,1.30
2018-12-11T03:46:05.066Z,1.30
2018-12-11T03:48:33.318Z,1.30
2018-12-11T03:51:02.908Z,1.30
2018-12-11T03:53:31.654Z,1.30
2018-12-11T03:56:00.104Z,1.30
2018-12-11T03:58:28.727Z,1.30
2018-12-11T04:00:56.998Z,1.30
2018-12-11T04:03:25.230Z,1.20
2018-12-11T04:05:54.113Z,1.20
2018-12-11T04:08:22.441Z,1.20
2018-12-11T04:10:51.261Z,1.20
2018-12-11T04:13:19.881Z,1.20
2018-12-11T04:15:49.214Z,1.20
2018-12-11T04:18:17.442Z,1.20
2018-12-11T04:20:45.868Z,1.20
2018-12-11T04:23:15.010Z,1.20
2018-12-11T04:25:43.563Z,1.20
2018-12-11T04:28:12.449Z,1.20
2018-12-11T04:30:41.139Z,1.10
2018-12-11T04:33:09.397Z,1.20
2018-12-11T04:35:38.752Z,1.20
2018-12-11T04:38:07.568Z,1.20
2018-12-11T04:40:36.158Z,1.20
2018-12-11T04:43:04.558Z,1.20
2018-12-11T04:45:34.113Z,1.20
2018-12-11T04:48:02.831Z,1.20
2018-12-11T04:50:31.520Z,1.20
2018-12-11T04:52:59.732Z,1.20
2018-12-11T04:55:29.069Z,1.20
2018-12-11T04:57:57.361Z,1.20
2018-12-11T05:00:25.938Z,1.20
2018-12-11T05:02:54.145Z,1.10
2018-12-11T05:05:22.817Z,1.20
2018-12-11T05:07:51.045Z,1.20
2018-12-11T05:10:20.266Z,1.20
2018-12-11T05:12:48.719Z,1.10
2018-12-11T05:15:17.961Z,1.10
2018-12-11T05:17:47.582Z,1.00
2018-12-11T05:20:15.817Z,1.00
2018-12-11T05:22:44.529Z,1.00
2018-12-11T05:25:13.233Z,0.90
2018-12-11T05:27:41.516Z,0.80
2018-12-11T05:30:10.295Z,0.80
2018-12-11T05:32:38.844Z,0.80
2018-12-11T05:35:07.125Z,0.80
2018-12-11T05:37:35.301Z,0.80
2018-12-11T05:40:03.873Z,0.80
2018-12-11T05:42:32.406Z,0.90
2018-12-11T05:45:01.072Z,0.90
2018-12-11T05:47:29.905Z,0.90
2018-12-11T05:49:59.670Z,0.90
2018-12-11T05:52:27.886Z,1.00
2018-12-11T05:54:56.129Z,1.00
2018-12-11T05:57:24.490Z,1.00
2018-12-11T05:59:52.667Z,1.00
2018-12-11T06:02:20.840Z,1.00
2018-12-11T06:04:49.130Z,1.00
2018-12-11T06:07:17.357Z,1.00
2018-12-11T06:09:45.560Z,1.00
2018-12-11T06:12:13.980Z,0.90
2018-12-11T06:14:42.443Z,0.90
2018-12-11T06:17:10.769Z,0.90
2018-12-11T06:19:39.591Z,0.90
2018-12-11T06:22:08.009Z,0.90
2018-12-11T06:24:36.545Z,0.80
2018-12-11T06:27:05.341Z,0.80
2018-12-11T06:29:33.779Z,0.80
2018-12-11T06:32:02.083Z,0.80
2018-12-11T06:34:30.300Z,0.80
2018-12-11T06:36:59.023Z,0.80
2018-12-11T06:39:28.440Z,0.80
2018-12-11T06:41:57.594Z,0.80
2018-12-11T06:44:25.770Z,0.80
2018-12-11T06:46:54.143Z,0.90
2018-12-11T06:49:22.557Z,0.90
2018-12-11T06:51:51.001Z,0.90
2018-12-11T06:54:19.305Z,0.90
2018-12-11T06:56:47.637Z,0.90
2018-12-11T06:59:15.831Z,0.90
2018-12-11T07:01:44.898Z,0.90
2018-12-11T07:04:13.091Z,0.90
2018-12-11T07:06:41.308Z,0.90
2018-12-11T07:09:10.760Z,0.90
2018-12-11T07:11:39.546Z,0.90
2018-12-11T07:14:08.427Z,0.90
2018-12-11T07:16:36.871Z,0.90
2018-12-11T07:19:05.468Z,0.90
2018-12-11T07:21:33.700Z,0.90
2018-12-11T07:24:02.024Z,0.90
2018-12-11T07:26:30.453Z,0.90
2018-12-11T07:28:58.774Z,1.00
2018-12-11T07:31:27.071Z,1.00
2018-12-11T07:33:55.338Z,1.00
2018-12-11T07:36:23.595Z,1.20
2018-12-11T07:38:51.938Z,1.10
2018-12-11T07:41:20.169Z,1.20
2018-12-11T07:43:48.577Z,1.20
2018-12-11T07:46:16.900Z,1.20
2018-12-11T07:48:45.248Z,1.20
2018-12-11T07:51:13.703Z,1.20
2018-12-11T07:53:41.980Z,1.20
2018-12-11T07:56:10.253Z,1.30
2018-12-11T07:58:38.631Z,1.30
2018-12-11T08:01:07.300Z,1.30
2018-12-11T08:03:36.285Z,1.30
2018-12-11T08:06:04.807Z,1.30
2018-12-11T08:08:32.996Z,1.30
2018-12-11T08:11:02.214Z,1.40
2018-12-11T08:13:30.474Z,1.40
2018-12-11T08:15:59.158Z,1.40
2018-12-11T08:18:27.617Z,1.40
2018-12-11T08:20:55.873Z,1.50
2018-12-11T08:23:24.189Z,1.50
2018-12-11T08:25:52.418Z,1.60
2018-12-11T08:28:20.657Z,1.60
2018-12-11T08:30:48.949Z,1.60
2018-12-11T08:33:18.031Z,1.60
2018-12-11T08:35:46.448Z,1.70
2018-12-11T08:38:14.814Z,1.70
2018-12-11T08:40:43.243Z,1.70
2018-12-11T08:43:11.592Z,1.70
2018-12-11T08:45:39.876Z,1.80
2018-12-11T08:48:08.214Z,1.80
2018-12-11T08:50:36.610Z,1.80
2018-12-11T08:53:12.015Z,1.90
2018-12-11T08:55:40.585Z,1.90
2018-12-11T08:58:08.952Z,2.00
2018-12-11T09:00:37.275Z,2.00
2018-12-11T09:03:05.513Z,2.00
2018-12-11T09:05:34.174Z,2.00
2018-12-11T09:08:02.468Z,2.10
2018-12-11T09:10:30.700Z,2.10
2018-12-11T09:12:59.114Z,2.10
2018-12-11T09:15:27.541Z,2.20
2018-12-11T09:17:56.011Z,2.20
2018-12-11T09:20:24.225Z,2.20
2018-12-11T09:22:53.514Z,2.20
2018-12-11T09:25:21.833Z,2.10
2018-12-11T09:27:50.217Z,2.10
2018-12-11T09:30:18.448Z,2.20
2018-12-11T09:32:46.822Z,2.20
2018-12-11T09:35:15.022Z,2.20
2018-12-11T09:37:43.225Z,2.20
2018-12-11T09:40:11.573Z,2.20
2018-12-11T09:42:40.106Z,2.30
2018-12-11T09:45:08.477Z,2.30
2018-12-11T09:47:36.801Z,2.40
2018-12-11T09:50:05.449Z,2.50
2018-12-11T09:52:33.965Z,2.50
2018-12-11T09:55:02.424Z,2.50
2018-12-11T09:57:30.752Z,2.50
2018-12-11T09:59:58.956Z,2.50
2018-12-11T10:02:27.175Z,2.60
2018-12-11T10:04:55.358Z,2.70
2018-12-11T10:07:23.662Z,2.70
2018-12-11T10:09:51.970Z,2.70
2018-12-11T10:12:20.454Z,2.70
2018-12-11T10:14:48.810Z,2.60
2018-12-11T10:17:17.021Z,2.60
2018-12-11T10:19:45.717Z,2.60
2018-12-11T10:22:13.998Z,2.60
2018-12-11T10:24:42.335Z,2.60
2018-12-11T10:27:10.585Z,2.60
2018-12-11T10:29:38.941Z,2.60
2018-12-11T10:32:07.270Z,2.70
2018-12-11T10:34:35.557Z,2.70
2018-12-11T10:37:03.960Z,2.80
2018-12-11T10:39:32.237Z,3.00
2018-12-11T10:42:00.551Z,3.10
2018-12-11T10:44:28.782Z,3.10
2018-12-11T10:46:57.312Z,3.20
2018-12-11T10:49:25.673Z,3.20
2018-12-11T10:51:53.874Z,3.20
2018-12-11T10:54:22.280Z,3.30
2018-12-11T10:56:50.625Z,3.20
2018-12-11T10:59:18.896Z,3.20
2018-12-11T11:01:47.101Z,3.20
2018-12-11T11:04:15.767Z,3.10
2018-12-11T11:06:44.070Z,3.10
2018-12-11T11:09:12.501Z,3.20
2018-12-11T11:11:41.977Z,3.20
2018-12-11T11:14:10.768Z,3.40
2018-12-11T11:16:39.049Z,3.50
2018-12-11T11:19:07.290Z,3.50
2018-12-11T11:21:35.735Z,3.40
2018-12-11T11:24:04.153Z,3.50
2018-12-11T11:26:32.496Z,3.50
2018-12-11T11:29:01.023Z,3.60
2018-12-11T11:31:29.453Z,3.80
2018-12-11T11:33:58.670Z,3.80
2018-12-11T11:36:27.192Z,3.70
2018-12-11T11:38:55.385Z,3.70
2018-12-11T11:41:23.911Z,3.60
2018-12-11T11:43:52.481Z,3.70
2018-12-11T11:46:20.798Z,3.60
2018-12-11T11:48:49.513Z,3.50
2018-12-11T11:51:17.925Z,3.50
2018-12-11T11:53:46.186Z,3.50
2018-12-11T11:56:14.419Z,3.50
2018-12-11T11:58:43.455Z,3.60
2018-12-11T12:01:11.929Z,3.60
2018-12-11T12:03:40.347Z,3.60
2018-12-11T12:06:09.428Z,3.60
2018-12-11T12:08:37.692Z,3.50
2018-12-11T12:11:06.074Z,3.40
2018-12-11T12:13:34.410Z,3.30
2018-12-11T12:16:02.694Z,3.30
2018-12-11T12:18:31.000Z,3.30
2018-12-11T12:20:59.491Z,3.50
2018-12-11T12:23:27.726Z,3.50
2018-12-11T12:25:55.942Z,3.50
2018-12-11T12:28:24.344Z,3.50
2018-12-11T12:30:53.405Z,3.40
2018-12-11T12:33:21.806Z,3.50
2018-12-11T12:35:50.117Z,3.50
2018-12-11T12:38:18.870Z,3.50
2018-12-11T12:40:47.517Z,3.60
2018-12-11T12:43:16.136Z,3.80
2018-12-11T12:45:45.517Z,3.90
2018-12-11T12:48:15.007Z,3.90
2018-12-11T12:50:44.246Z,3.90
2018-12-11T12:53:12.565Z,3.90
2018-12-11T12:55:40.861Z,3.70
2018-12-11T12:59:09.526Z,3.60
2018-12-11T13:01:37.966Z,3.60
2018-12-11T13:04:06.425Z,3.60
2018-12-11T13:06:35.282Z,3.40
2018-12-11T13:09:05.970Z,3.40
2018-12-11T13:11:34.809Z,3.40
2018-12-11T13:14:03.116Z,3.50
2018-12-11T13:16:31.370Z,3.50
2018-12-11T13:18:59.929Z,3.50
2018-12-11T13:21:28.106Z,3.50
2018-12-11T13:23:56.742Z,3.50
2018-12-11T13:26:25.830Z,3.60
2018-12-11T13:28:54.025Z,3.60
2018-12-11T13:31:22.271Z,3.60
2018-12-11T13:33:50.482Z,3.50
2018-12-11T13:36:18.792Z,3.40
2018-12-11T13:38:47.199Z,3.30
2018-12-11T13:41:15.505Z,3.30
2018-12-11T13:43:44.582Z,3.40
2018-12-11T13:46:12.836Z,3.30
2018-12-11T13:48:41.217Z,3.20
2018-12-11T13:51:09.717Z,3.20
2018-12-11T13:53:38.026Z,3.20
2018-12-11T13:56:06.220Z,3.20
2018-12-11T13:58:34.494Z,3.30
2018-12-11T14:01:02.961Z,3.20
2018-12-11T14:03:31.220Z,3.20
2018-12-11T14:05:59.930Z,3.10
2018-12-11T14:08:28.600Z,3.10
2018-12-11T14:10:57.373Z,3.10
2018-12-11T14:13:25.608Z,3.10
2018-12-11T14:15:53.789Z,3.10
2018-12-11T14:18:21.994Z,3.00
2018-12-11T14:20:50.665Z,2.80
2018-12-11T14:23:19.063Z,2.70
2018-12-11T14:25:47.796Z,2.70
2018-12-11T14:28:16.233Z,2.70
2018-12-11T14:30:44.482Z,2.70
2018-12-11T14:33:12.767Z,2.70
2018-12-11T14:35:41.273Z,2.70
2018-12-11T14:38:09.571Z,2.70
2018-12-11T14:40:38.199Z,2.70
2018-12-11T14:43:06.402Z,2.70
2018-12-11T14:45:34.813Z,2.70
2018-12-11T14:48:04.066Z,2.60
2018-12-11T14:50:32.491Z,2.60
2018-12-11T14:53:00.760Z,2.60
2018-12-11T14:55:29.218Z,2.60
2018-12-11T14:57:57.501Z,2.60
2018-12-11T15:00:25.742Z,2.60
2018-12-11T15:02:54.573Z,2.60
2018-12-11T15:05:23.279Z,2.50
2018-12-11T15:07:51.941Z,2.50
2018-12-11T15:10:20.340Z,2.40
2018-12-11T15:12:49.184Z,2.40
2018-12-11T15:15:17.517Z,2.40
2018-12-11T15:17:45.827Z,2.40
2018-12-11T15:20:14.310Z,2.30
2018-12-11T15:22:42.569Z,2.30
2018-12-11T15:25:10.817Z,2.20
2018-12-11T15:27:39.010Z,2.10
2018-12-11T15:30:07.806Z,2.10
2018-12-11T15:32:36.253Z,2.10
2018-12-11T15:35:04.845Z,2.00
2018-12-11T15:37:33.170Z,1.90
2018-12-11T15:40:02.409Z,1.90
2018-12-11T15:42:31.146Z,1.80
2018-12-11T15:44:59.925Z,1.80
2018-12-11T15:47:28.381Z,1.70
2018-12-11T15:49:56.865Z,1.70
2018-12-11T15:52:25.167Z,1.60
2018-12-11T15:54:53.476Z,1.60
2018-12-11T15:57:21.677Z,1.50
2018-12-11T15:59:50.430Z,1.50
2018-12-11T16:02:19.052Z,1.40
2018-12-11T16:04:47.376Z,1.40
2018-12-11T16:07:16.478Z,1.30
2018-12-11T16:09:45.061Z,1.20
2018-12-11T16:12:13.709Z,1.20
2018-12-11T16:14:42.703Z,1.10
2018-12-11T16:17:10.996Z,1.00
2018-12-11T16:19:39.313Z,0.90
2018-12-11T16:22:07.733Z,0.80
2018-12-11T16:24:37.156Z,0.80
2018-12-11T16:27:05.528Z,0.70
2018-12-11T16:29:33.765Z,0.70
2018-12-11T16:32:03.097Z,0.60
2018-12-11T16:34:31.598Z,0.50
2018-12-11T16:37:00.230Z,0.50
2018-12-11T16:39:28.650Z,0.50
2018-12-11T16:41:57.481Z,0.40
2018-12-11T16:44:26.692Z,0.40
2018-12-11T16:46:55.140Z,0.30
2018-12-11T16:49:23.655Z,0.30
2018-12-11T16:51:52.374Z,0.30
2018-12-11T16:54:20.876Z,0.20
2018-12-11T16:56:49.475Z,0.20
2018-12-11T16:59:18.197Z,0.30
2018-12-11T17:01:46.454Z,0.30
2018-12-11T17:04:14.815Z,0.30
2018-12-11T17:06:43.255Z,0.30
2018-12-11T17:09:14.734Z,0.20
2018-12-11T17:11:43.829Z,0.20
2018-12-11T17:14:12.220Z,0.10
2018-12-11T17:16:40.748Z,0.10
2018-12-11T17:19:09.178Z,0.00
2018-12-11T17:21:37.861Z,0.00
2018-12-11T17:24:06.631Z,0.00
2018-12-11T17:26:35.231Z,-0.10
2018-12-11T17:29:03.978Z,-0.10
2018-12-11T17:31:32.289Z,-0.20
2018-12-11T17:34:00.574Z,-0.20
2018-12-11T17:36:29.527Z,-0.30
2018-12-11T17:38:57.879Z,-0.40
2018-12-11T17:41:26.100Z,-0.40
2018-12-11T17:43:54.825Z,-0.40
2018-12-11T17:46:23.706Z,-0.30
2018-12-11T17:48:51.929Z,-0.30
2018-12-11T17:51:21.119Z,-0.20
2018-12-11T17:53:50.550Z,-0.20
2018-12-11T17:56:18.998Z,-0.20
2018-12-11T17:58:48.133Z,-0.20
2018-12-11T18:01:16.626Z,-0.20
2018-12-11T18:03:46.121Z,-0.30
2018-12-11T18:06:14.744Z,-0.30
2018-12-11T18:08:43.264Z,-0.30
2018-12-11T18:11:11.968Z,-0.40
2018-12-11T18:13:40.513Z,-0.50
2018-12-11T18:16:08.999Z,-0.50
2018-12-11T18:18:37.336Z,-0.50
2018-12-11T18:21:06.229Z,-0.50
2018-12-11T18:23:34.698Z,-0.50
2018-12-11T18:26:03.581Z,-0.50
2018-12-11T18:28:32.310Z,-0.60
2018-12-11T18:31:01.097Z,-0.60
2018-12-11T18:33:29.666Z,-0.60
2018-12-11T18:35:58.029Z,-0.70
2018-12-11T18:38:26.866Z,-0.70
2018-12-11T18:40:55.651Z,-0.60
2018-12-11T18:43:24.013Z,-0.60
2018-12-11T18:45:54.401Z,-0.60
2018-12-11T18:48:22.929Z,-0.70
2018-12-11T18:50:52.203Z,-0.70
2018-12-11T18:53:20.670Z,-0.70
2018-12-11T18:55:50.387Z,-0.70
2018-12-11T18:58:18.702Z,-0.70
2018-12-11T19:00:47.069Z,-0.60
2018-12-11T19:03:16.448Z,-0.60
2018-12-11T19:05:45.139Z,-0.50
2018-12-11T19:08:13.433Z,-0.50
2018-12-11T19:10:42.549Z,-0.50
2018-12-11T19:13:10.912Z,-0.40
2018-12-11T19:15:39.927Z,-0.40
2018-12-11T19:18:08.996Z,-0.40
2018-12-11T19:20:37.888Z,-0.40
2018-12-11T19:23:19.772Z,-0.30
2018-12-11T19:25:48.548Z,-0.30
2018-12-11T19:28:17.049Z,-0.30
2018-12-11T19:30:46.453Z,-0.30
2018-12-11T19:33:15.150Z,-0.30
2018-12-11T19:35:43.920Z,-0.30
2018-12-11T19:38:12.521Z,-0.30
2018-12-11T19:40:43.930Z,-0.20
2018-12-11T19:43:11.509Z,-0.20
2018-12-11T19:45:40.009Z,-0.20
2018-12-11T19:48:08.559Z,-0.20
2018-12-11T19:50:37.291Z,-0.30
2018-12-11T19:53:05.526Z,-0.30
2018-12-11T19:55:33.849Z,-0.30
2018-12-11T19:58:02.558Z,-0.40
2018-12-11T20:00:30.818Z,-0.40
2018-12-11T20:02:59.481Z,-0.50
2018-12-11T20:05:28.195Z,-0.50
2018-12-11T20:07:56.945Z,-0.60
2018-12-11T20:10:29.745Z,-0.60
2018-12-11T20:12:58.521Z,-0.70
2018-12-11T20:15:26.921Z,-0.70
2018-12-11T20:17:56.159Z,-0.80
2018-12-11T20:20:26.657Z,-0.80
2018-12-11T20:22:55.960Z,-0.90
2018-12-11T20:25:24.817Z,-1.00
2018-12-11T20:27:53.177Z,-1.00
2018-12-11T20:30:21.432Z,-1.00
2018-12-11T20:32:50.672Z,-1.10
2018-12-11T20:35:19.258Z,-1.10
2018-12-11T20:37:47.788Z,-1.20
2018-12-11T20:40:16.801Z,-1.30
2018-12-11T20:42:45.141Z,-1.30
2018-12-11T20:45:13.898Z,-1.30
2018-12-11T20:47:43.822Z,-1.40
2018-12-11T20:50:12.152Z,-1.40
2018-12-11T20:52:40.381Z,-1.40
2018-12-11T20:55:09.068Z,-1.40
2018-12-11T20:57:37.284Z,-1.40
2018-12-11T21:00:07.626Z,-1.40
2018-12-11T21:02:36.323Z,-1.40
2018-12-11T21:05:04.985Z,-1.40
2018-12-11T21:07:33.304Z,-1.40
2018-12-11T21:10:02.223Z,-1.50
2018-12-11T21:12:30.690Z,-1.50
2018-12-11T21:14:59.376Z,-1.50
2018-12-11T21:17:27.605Z,-1.60
2018-12-11T21:19:56.329Z,-1.60
2018-12-11T21:22:25.021Z,-1.60
2018-12-11T21:24:53.721Z,-1.50
2018-12-11T21:27:22.030Z,-1.50
2018-12-11T21:29:51.177Z,-1.50
2018-12-11T21:32:20.390Z,-1.50
2018-12-11T21:34:49.061Z,-1.50
2018-12-11T21:37:17.934Z,-1.40
2018-12-11T21:39:46.217Z,-1.40
2018-12-11T21:42:14.462Z,-1.40
2018-12-11T21:44:43.629Z,-1.30
2018-12-11T21:47:11.883Z,-1.30
2018-12-11T21:49:40.466Z,-1.20
2018-12-11T21:52:08.837Z,-1.20
2018-12-11T21:54:37.322Z,-1.10
2018-12-11T21:57:06.025Z,-1.10
2018-12-11T21:59:34.389Z,-1.10
2018-12-11T22:02:03.125Z,-1.10
2018-12-11T22:04:31.365Z,-1.10
2018-12-11T22:07:00.628Z,-1.10
2018-12-11T22:09:29.036Z,-1.10
2018-12-11T22:11:57.735Z,-1.10
2018-12-11T22:14:25.967Z,-1.10
2018-12-11T22:16:54.442Z,-1.00
2018-12-11T22:19:22.974Z,-1.10
2018-12-11T22:21:51.742Z,-1.10
2018-12-11T22:24:20.356Z,-1.10
2018-12-11T22:26:49.773Z,-1.10
2018-12-11T22:29:18.210Z,-1.00
2018-12-11T22:31:46.755Z,-1.00
2018-12-11T22:34:15.598Z,-0.90
2018-12-11T22:36:44.126Z,-0.80
2018-12-11T22:39:12.665Z,-0.80
2018-12-11T22:41:41.449Z,-0.80
2018-12-11T22:44:10.189Z,-0.70
2018-12-11T22:46:38.914Z,-0.60
2018-12-11T22:49:08.722Z,-0.60
2018-12-11T22:51:39.030Z,-0.60
2018-12-11T22:54:08.355Z,-0.60
2018-12-11T22:56:36.840Z,-0.50
2018-12-11T22:59:05.381Z,-0.50
2018-12-11T23:01:33.750Z,-0.50
2018-12-11T23:04:02.839Z,-0.60
2018-12-11T23:06:32.857Z,-0.60
2018-12-11T23:09:01.410Z,-0.50
2018-12-11T23:11:30.278Z,-0.50
2018-12-11T23:13:59.265Z,-0.50
2018-12-11T23:16:27.906Z,-0.50
2018-12-11T23:18:56.547Z,-0.50
2018-12-11T23:21:25.017Z,-0.50
2018-12-11T23:23:53.548Z,-0.40
2018-12-11T23:26:22.113Z,-0.40
2018-12-11T23:28:51.509Z,-0.40
2018-12-11T23:31:20.002Z,-0.40
2018-12-11T23:33:48.517Z,-0.40
2018-12-11T23:36:17.021Z,-0.40
2018-12-11T23:38:45.460Z,-0.50
2018-12-11T23:41:13.703Z,-0.60
2018-12-11T23:43:42.649Z,-0.80
2018-12-11T23:46:11.411Z,-0.90
2018-12-11T23:48:39.709Z,-1.00
2018-12-11T23:51:08.123Z,-1.10
2018-12-11T23:53:36.540Z,-1.00
2018-12-11T23:56:05.321Z,-1.10
2018-12-11T23:58:33.811Z,-1.10
